• Join FlightAware (Why Join?)
  • Login
  • US Flag 
02:43AM EDT


 

Airport Tracker/Info


-or-


 

Live Flight TrackerFlight Track Log ✈ CLH2181 ✈ 23-Jun-2013 ✈ EDLP / PAD - EDDM / MUC

Flight Track Log - Related Links

Times and Time Zones

All times are in EDT time to prevent confusion due to time zone crossing. See the CLH2181 flight status page for this flight to view local times or setup timezone preferences in your user account.

Time Position Orientation Groundspeed Altitude Reporting Facility
EDT Latitude Longitude Course Direction KTS MPH feet Rate Location/Type
01:45PM 51.2919 8.9534 147° Southeast  Level Estimated
01:46PM 51.2274 9.0202 147° Southeast  Level Estimated
01:47PM 51.1628 9.0869 147° Southeast  Level Estimated
01:48PM 51.0982 9.1533 147° Southeast  Level Estimated
01:49PM 51.0335 9.2196 147° Southeast  Level Estimated
01:50PM 50.9688 9.2857 147° Southeast  Level Estimated
01:51PM 50.9041 9.3516 147° Southeast  Level Estimated
01:52PM 50.8393 9.4174 147° Southeast  Level Estimated
01:53PM 50.7745 9.4829 147° Southeast  Level Estimated
01:54PM 50.7097 9.5483 147° Southeast  Level Estimated
01:55PM 50.6448 9.6135 147° Southeast  Level Estimated
01:56PM 50.5799 9.6785 148° Southeast  Level Estimated
01:57PM 50.5149 9.7433 148° Southeast  Level Estimated
01:58PM 50.4499 9.8080 148° Southeast  Level Estimated
01:59PM 50.3849 9.8724 148° Southeast  Level Estimated
02:00PM 50.3199 9.9367 148° Southeast  Level Estimated
02:01PM 50.2181 10.0368 148° Southeast  Level Estimated
02:02PM 50.1163 10.1365 148° Southeast  Level Estimated
02:03PM 50.0144 10.2358 148° Southeast  Level Estimated
02:04PM 49.9124 10.3346 148° Southeast  Level Estimated
02:05PM 49.8104 10.4331 148° Southeast  Level Estimated
02:06PM 49.7082 10.5311 148° Southeast  Level Estimated
02:07PM 49.6060 10.6287 148° Southeast  Level Estimated
02:08PM 49.5037 10.7259 148° Southeast  Level Estimated
02:09PM 49.4013 10.8227 148° Southeast  Level Estimated
02:10PM 49.2988 10.9190 148° Southeast  Level Estimated
02:11PM 49.1963 11.0150 149° Southeast  Level Estimated
02:12PM 49.0936 11.1106 149° Southeast  Level Estimated
02:13PM 48.9909 11.2058 149° Southeast  Level Estimated
02:14PM 48.8881 11.3006 149° Southeast  Level Estimated
02:15PM 48.7853 11.3950 149° Southeast  Level Estimated
02:16PM 48.6823 11.4890 149° Southeast  Level Estimated
02:17PM 48.5793 11.5827 149° Southeast  Level Estimated
02:18PM 48.4762 11.6759 149° Southeast  Level Estimated
02:19PM 48.3730 11.7688 149° Southeast  Level Estimated
02:20PM 48.3538 11.7861 149° Southeast  Level Estimated
02:21PM 48.3538 11.7861 318° Northwest  Level Estimated
02:22PM 48.3538 11.7861 318° Northwest  Level Estimated
02:23PM 48.3538 11.7861 318° Northwest  Level Estimated
02:24PM 48.3538 11.7861 318° Northwest  Level Estimated
02:25PM 48.3538 11.7861 318° Northwest  Level Estimated
02:26PM 48.3538 11.7861 318° Northwest  Level Estimated
02:27PM 48.3538 11.7861 318° Northwest  Level Estimated
02:28PM 48.3538 11.7861 318° Northwest  Level Estimated